createdAt,value
2019-01-10T00:01:38.265Z,99.90
2019-01-10T00:04:11.359Z,99.90
2019-01-10T00:06:40.122Z,99.90
2019-01-10T00:09:10.213Z,99.90
2019-01-10T00:11:40.280Z,99.90
2019-01-10T00:14:10.372Z,99.90
2019-01-10T00:16:40.457Z,99.90
2019-01-10T00:19:10.554Z,99.90
2019-01-10T00:21:40.627Z,99.90
2019-01-10T00:24:10.725Z,99.90
2019-01-10T00:26:40.803Z,99.90
2019-01-10T00:29:10.906Z,99.90
2019-01-10T00:31:40.985Z,99.90
2019-01-10T00:34:13.833Z,99.90
2019-01-10T00:36:43.904Z,99.90
2019-01-10T00:39:14.004Z,99.90
2019-01-10T00:41:44.086Z,99.90
2019-01-10T00:44:14.185Z,99.90
2019-01-10T00:46:44.261Z,99.90
2019-01-10T00:49:14.351Z,99.90
2019-01-10T00:51:44.435Z,99.90
2019-01-10T00:54:33.972Z,99.90
2019-01-10T00:57:04.053Z,99.90
2019-01-10T00:59:34.154Z,99.90
2019-01-10T01:02:04.241Z,99.90
2019-01-10T01:04:34.335Z,99.90
2019-01-10T01:07:04.447Z,99.90
2019-01-10T01:09:34.547Z,99.90
2019-01-10T01:12:04.621Z,99.90
2019-01-10T01:14:34.727Z,99.90
2019-01-10T01:17:04.878Z,99.90
2019-01-10T01:19:34.976Z,99.90
2019-01-10T01:22:05.054Z,99.90
2019-01-10T01:24:35.147Z,99.90
2019-01-10T01:27:05.227Z,99.90
2019-01-10T01:29:35.332Z,99.90
2019-01-10T01:32:05.405Z,99.90
2019-01-10T01:34:35.508Z,99.90
2019-01-10T01:37:05.666Z,99.90
2019-01-10T01:39:35.762Z,99.90
2019-01-10T01:42:05.840Z,99.90
2019-01-10T01:44:35.942Z,99.90
2019-01-10T01:47:06.019Z,99.90
2019-01-10T01:49:36.119Z,99.90
2019-01-10T01:52:06.279Z,99.90
2019-01-10T01:54:36.374Z,99.90
2019-01-10T01:57:06.514Z,99.90
2019-01-10T01:59:36.617Z,99.90
2019-01-10T02:02:06.691Z,99.90
2019-01-10T02:04:38.636Z,99.90
2019-01-10T02:07:08.713Z,99.90
2019-01-10T02:09:38.809Z,99.90
2019-01-10T02:12:08.881Z,99.90
2019-01-10T02:14:38.983Z,99.90
2019-01-10T02:17:10.133Z,99.90
2019-01-10T02:19:40.230Z,99.90
2019-01-10T02:22:22.307Z,99.90
2019-01-10T02:24:52.577Z,99.90
2019-01-10T02:27:22.665Z,99.90
2019-01-10T02:29:52.757Z,99.90
2019-01-10T02:32:22.835Z,99.90
2019-01-10T02:34:52.932Z,99.90
2019-01-10T02:37:23.008Z,99.90
2019-01-10T02:39:53.102Z,99.90
2019-01-10T02:42:23.180Z,99.90
2019-01-10T02:44:53.273Z,99.90
2019-01-10T02:47:23.348Z,99.90
2019-01-10T02:49:53.446Z,99.90
2019-01-10T02:52:23.527Z,99.90
2019-01-10T02:54:53.626Z,99.90
2019-01-10T02:57:23.718Z,99.90
2019-01-10T02:59:53.804Z,99.90
2019-01-10T03:02:23.877Z,99.90
2019-01-10T03:04:53.970Z,99.90
2019-01-10T03:07:24.055Z,99.90
2019-01-10T03:09:54.161Z,99.90
2019-01-10T03:12:24.241Z,99.90
2019-01-10T03:14:54.338Z,99.90
2019-01-10T03:17:24.421Z,99.90
2019-01-10T03:19:54.510Z,99.90
2019-01-10T03:22:24.590Z,99.90
2019-01-10T03:24:54.686Z,99.90
2019-01-10T03:27:24.767Z,99.90
2019-01-10T03:29:54.856Z,99.90
2019-01-10T03:32:24.931Z,99.90
2019-01-10T03:34:55.094Z,99.90
2019-01-10T03:37:25.174Z,99.90
2019-01-10T03:39:55.273Z,99.90
2019-01-10T03:42:25.354Z,99.90
2019-01-10T03:44:55.447Z,99.90
2019-01-10T03:47:25.522Z,99.90
2019-01-10T03:49:55.619Z,99.90
2019-01-10T03:52:25.690Z,99.90
2019-01-10T03:54:55.790Z,99.90
2019-01-10T03:57:25.868Z,99.90
2019-01-10T03:59:55.964Z,99.90
2019-01-10T04:02:26.044Z,99.90
2019-01-10T04:04:56.138Z,99.90
2019-01-10T04:07:26.221Z,99.90
2019-01-10T04:09:56.313Z,99.90
2019-01-10T04:12:26.387Z,99.90
2019-01-10T04:14:56.479Z,99.90
2019-01-10T04:17:26.568Z,99.90
2019-01-10T04:19:56.651Z,99.90
2019-01-10T04:22:26.729Z,99.90
2019-01-10T04:24:56.821Z,99.90
2019-01-10T04:27:26.897Z,99.90
2019-01-10T04:29:56.995Z,99.90
2019-01-10T04:32:27.070Z,99.90
2019-01-10T04:34:57.170Z,99.90
2019-01-10T04:37:27.246Z,99.90
2019-01-10T04:39:57.344Z,99.90
2019-01-10T04:42:27.423Z,99.90
2019-01-10T04:44:57.515Z,99.90
2019-01-10T04:47:27.591Z,99.90
2019-01-10T04:49:57.692Z,99.90
2019-01-10T04:52:27.766Z,99.90
2019-01-10T04:55:10.985Z,99.90
2019-01-10T04:57:41.036Z,99.90
2019-01-10T05:00:20.965Z,99.90
2019-01-10T05:02:51.038Z,99.90
2019-01-10T05:05:21.135Z,99.90
2019-01-10T05:07:51.220Z,99.90
2019-01-10T05:10:21.308Z,99.90
2019-01-10T05:12:51.393Z,99.90
2019-01-10T05:15:21.849Z,99.90
2019-01-10T05:17:51.930Z,99.90
2019-01-10T05:20:23.101Z,99.90
2019-01-10T05:22:53.174Z,99.90
2019-01-10T05:25:24.245Z,99.90
2019-01-10T05:27:54.319Z,99.90
2019-01-10T05:30:24.415Z,99.90
2019-01-10T05:32:54.494Z,99.90
2019-01-10T05:35:24.590Z,99.90
2019-01-10T05:37:54.670Z,99.90
2019-01-10T05:40:24.774Z,99.90
2019-01-10T05:42:54.849Z,99.90
2019-01-10T05:45:24.953Z,99.90
2019-01-10T05:47:55.024Z,99.90
2019-01-10T05:50:25.129Z,99.90
2019-01-10T05:52:55.234Z,99.90
2019-01-10T05:55:25.310Z,99.90
2019-01-10T05:57:55.399Z,99.90
2019-01-10T06:00:26.318Z,99.90
2019-01-10T06:02:56.408Z,99.90
2019-01-10T06:05:26.486Z,99.90
2019-01-10T06:07:56.586Z,99.90
2019-01-10T06:10:27.599Z,99.90
2019-01-10T06:12:57.703Z,99.90
2019-01-10T06:15:27.777Z,99.90
2019-01-10T06:17:58.842Z,99.90
2019-01-10T06:20:28.947Z,99.90
2019-01-10T06:22:59.048Z,99.90
2019-01-10T06:25:29.126Z,99.90
2019-01-10T06:27:59.222Z,99.90
2019-01-10T06:30:30.084Z,99.90
2019-01-10T06:33:00.178Z,99.90
2019-01-10T06:35:30.249Z,99.90
2019-01-10T06:38:01.418Z,99.90
2019-01-10T06:40:31.493Z,99.90
2019-01-10T06:43:01.593Z,99.90
2019-01-10T06:45:31.791Z,99.90
2019-01-10T06:48:01.869Z,99.90
2019-01-10T06:50:31.942Z,99.90
2019-01-10T06:53:02.036Z,99.90
2019-01-10T06:55:32.111Z,99.90
2019-01-10T06:58:02.217Z,99.90
2019-01-10T07:00:32.291Z,99.90
2019-01-10T07:03:02.388Z,99.90
2019-01-10T07:05:32.518Z,99.90
2019-01-10T07:08:02.618Z,99.90
2019-01-10T07:10:32.698Z,99.90
2019-01-10T07:13:02.802Z,99.90
2019-01-10T07:15:32.884Z,99.90
2019-01-10T07:18:02.979Z,99.90
2019-01-10T07:20:37.944Z,99.90
2019-01-10T07:23:20.333Z,99.90
2019-01-10T07:25:53.494Z,99.90
2019-01-10T07:28:23.770Z,99.90
2019-01-10T07:30:54.880Z,99.90
2019-01-10T07:33:24.975Z,99.90
2019-01-10T07:35:55.990Z,99.90
2019-01-10T07:38:26.094Z,99.90
2019-01-10T07:40:56.177Z,99.90
2019-01-10T07:43:26.274Z,99.90
2019-01-10T07:45:56.593Z,99.90
2019-01-10T07:48:26.783Z,99.90
2019-01-10T07:50:56.865Z,99.90
2019-01-10T07:53:26.955Z,99.90
2019-01-10T07:55:57.039Z,99.90
2019-01-10T07:58:27.151Z,99.90
2019-01-10T08:00:57.213Z,99.90
2019-01-10T08:03:27.315Z,99.90
2019-01-10T08:05:57.920Z,99.90
2019-01-10T08:08:28.140Z,99.90
2019-01-10T08:11:01.089Z,99.90
2019-01-10T08:13:31.246Z,99.90
2019-01-10T08:16:04.428Z,99.90
2019-01-10T08:18:34.504Z,99.90
2019-01-10T08:21:04.641Z,99.90
2019-01-10T08:23:34.799Z,99.90
2019-01-10T08:26:04.965Z,99.90
2019-01-10T08:28:35.041Z,99.90
2019-01-10T08:31:05.320Z,99.90
2019-01-10T08:33:36.370Z,99.90
2019-01-10T08:36:06.637Z,99.90
2019-01-10T08:38:36.733Z,99.90
2019-01-10T08:41:06.918Z,99.90
2019-01-10T08:43:36.998Z,99.90
2019-01-10T08:46:07.330Z,99.90
2019-01-10T08:48:37.408Z,99.90
2019-01-10T08:51:07.531Z,99.90
2019-01-10T08:53:37.627Z,99.90
2019-01-10T08:56:08.758Z,99.90
2019-01-10T08:58:38.854Z,99.90
2019-01-10T09:01:08.984Z,99.90
2019-01-10T09:03:39.074Z,99.90
2019-01-10T09:06:09.212Z,99.90
2019-01-10T09:08:39.296Z,99.90
2019-01-10T09:11:09.450Z,99.50
2019-01-10T09:13:39.539Z,99.60
2019-01-10T09:16:09.626Z,99.40
2019-01-10T09:18:39.726Z,99.40
2019-01-10T09:21:09.898Z,98.90
2019-01-10T09:23:39.982Z,99.60
2019-01-10T09:26:10.092Z,99.10
2019-01-10T09:28:40.187Z,99.00
2019-01-10T09:31:10.338Z,98.60
2019-01-10T09:33:40.431Z,99.40
2019-01-10T09:36:10.582Z,99.00
2019-01-10T09:38:40.654Z,98.40
2019-01-10T09:41:10.796Z,98.50
2019-01-10T09:43:40.875Z,97.90
2019-01-10T09:46:11.029Z,98.60
2019-01-10T09:48:41.098Z,96.90
2019-01-10T09:51:11.278Z,97.30
2019-01-10T09:53:41.354Z,97.40
2019-01-10T09:56:11.600Z,97.20
2019-01-10T09:58:41.677Z,97.30
2019-01-10T10:01:11.805Z,96.90
2019-01-10T10:03:41.888Z,97.30
2019-01-10T10:06:12.048Z,96.00
2019-01-10T10:08:42.139Z,95.30
2019-01-10T10:11:12.291Z,94.20
2019-01-10T10:13:42.374Z,96.00
2019-01-10T10:16:12.509Z,94.70
2019-01-10T10:18:42.595Z,94.10
2019-01-10T10:21:12.718Z,95.00
2019-01-10T10:23:42.806Z,92.80
2019-01-10T10:26:12.982Z,93.60
2019-01-10T10:28:55.663Z,91.50
2019-01-10T10:31:25.736Z,93.60
2019-01-10T10:33:55.829Z,91.70
2019-01-10T10:36:25.914Z,91.80
2019-01-10T10:38:56.027Z,93.30
2019-01-10T10:41:26.100Z,92.20
2019-01-10T10:43:56.189Z,93.50
2019-01-10T10:46:26.265Z,92.80
2019-01-10T10:48:56.366Z,92.40
2019-01-10T10:51:26.441Z,93.70
2019-01-10T10:53:56.621Z,93.90
2019-01-10T10:56:26.688Z,95.00
2019-01-10T10:58:56.907Z,95.50
2019-01-10T11:01:28.661Z,94.90
2019-01-10T11:03:58.760Z,95.20
2019-01-10T11:06:28.845Z,96.60
2019-01-10T11:08:58.937Z,95.50
2019-01-10T11:11:29.022Z,94.50
2019-01-10T11:13:59.118Z,95.30
2019-01-10T11:16:29.195Z,95.50
2019-01-10T11:18:59.297Z,95.50
2019-01-10T11:21:29.369Z,95.20
2019-01-10T11:23:59.548Z,95.40
2019-01-10T11:26:29.621Z,94.30
2019-01-10T11:28:59.725Z,94.80
2019-01-10T11:31:49.237Z,94.30
2019-01-10T11:34:19.334Z,92.70
2019-01-10T11:36:49.409Z,93.60
2019-01-10T11:39:19.508Z,91.70
2019-01-10T11:41:49.585Z,91.30
2019-01-10T11:44:19.686Z,91.60
2019-01-10T11:46:49.754Z,92.60
2019-01-10T11:49:19.878Z,92.00
2019-01-10T11:51:49.958Z,91.30
2019-01-10T11:54:20.053Z,91.50
2019-01-10T11:56:50.125Z,92.00
2019-01-10T11:59:20.290Z,90.70
2019-01-10T12:01:50.363Z,91.50
2019-01-10T12:04:20.462Z,91.70
2019-01-10T12:06:50.538Z,91.20
2019-01-10T12:09:20.635Z,92.10
2019-01-10T12:11:50.710Z,91.30
2019-01-10T12:14:20.811Z,93.20
2019-01-10T12:16:50.882Z,92.80
2019-01-10T12:19:20.982Z,93.30
2019-01-10T12:21:51.058Z,93.10
2019-01-10T12:24:21.152Z,91.30
2019-01-10T12:26:52.198Z,86.30
2019-01-10T12:29:22.288Z,86.60
2019-01-10T12:31:52.374Z,86.40
2019-01-10T12:34:22.468Z,89.80
2019-01-10T12:37:00.345Z,88.00
2019-01-10T12:39:24.353Z,91.70
2019-01-10T12:41:54.514Z,91.50
2019-01-10T12:44:24.614Z,91.00
2019-01-10T12:46:54.694Z,92.00
2019-01-10T12:49:24.794Z,92.40
2019-01-10T12:51:54.875Z,93.00
2019-01-10T12:54:24.968Z,94.60
2019-01-10T12:56:55.046Z,91.60
2019-01-10T12:59:25.141Z,90.70
2019-01-10T13:01:55.217Z,88.70
2019-01-10T13:04:25.317Z,84.90
2019-01-10T13:06:56.356Z,83.90
2019-01-10T13:09:26.456Z,86.10
2019-01-10T13:11:56.525Z,90.00
2019-01-10T13:14:26.621Z,89.20
2019-01-10T13:16:56.693Z,90.10
2019-01-10T13:19:26.791Z,89.50
2019-01-10T13:21:56.871Z,89.40
2019-01-10T13:24:26.967Z,90.50
2019-01-10T13:26:57.089Z,92.10
2019-01-10T13:29:27.182Z,92.00
2019-01-10T13:31:57.279Z,91.70
2019-01-10T13:34:27.354Z,89.90
2019-01-10T13:36:57.450Z,90.90
2019-01-10T13:39:27.525Z,90.00
2019-01-10T13:41:57.625Z,88.60
2019-01-10T13:44:27.800Z,90.70
2019-01-10T13:46:57.880Z,91.50
2019-01-10T13:49:27.955Z,91.20
2019-01-10T13:51:58.079Z,91.10
2019-01-10T13:54:28.123Z,90.60
2019-01-10T13:56:58.218Z,91.00
2019-01-10T13:59:28.285Z,91.50
2019-01-10T14:01:58.388Z,90.70
2019-01-10T14:04:28.462Z,91.30
2019-01-10T14:06:58.556Z,92.10
2019-01-10T14:09:28.658Z,92.30
2019-01-10T14:11:58.735Z,91.20
2019-01-10T14:14:28.847Z,91.50
2019-01-10T14:17:01.764Z,90.90
2019-01-10T14:19:30.718Z,91.20
2019-01-10T14:22:00.823Z,91.50
2019-01-10T14:24:30.896Z,91.50
2019-01-10T14:27:01.001Z,91.10
2019-01-10T14:29:31.073Z,91.90
2019-01-10T14:32:01.179Z,90.60
2019-01-10T14:34:31.305Z,91.60
2019-01-10T14:37:14.348Z,91.30
2019-01-10T14:39:44.427Z,92.70
2019-01-10T14:42:14.524Z,91.70
2019-01-10T14:44:44.685Z,91.00
2019-01-10T14:47:14.794Z,91.00
2019-01-10T14:49:44.868Z,91.60
2019-01-10T14:52:14.969Z,91.50
2019-01-10T14:54:45.046Z,91.50
2019-01-10T14:57:15.163Z,91.20
2019-01-10T14:59:45.239Z,91.50
2019-01-10T15:02:15.339Z,90.60
2019-01-10T15:04:45.414Z,91.60
2019-01-10T15:07:15.527Z,91.20
2019-01-10T15:09:45.607Z,91.40
2019-01-10T15:12:15.714Z,91.10
2019-01-10T15:14:45.792Z,91.90
2019-01-10T15:17:15.903Z,91.90
2019-01-10T15:19:45.979Z,90.30
2019-01-10T15:22:16.079Z,89.80
2019-01-10T15:24:46.158Z,90.90
2019-01-10T15:27:16.267Z,90.00
2019-01-10T15:29:46.335Z,90.40
2019-01-10T15:32:16.440Z,91.70
2019-01-10T15:34:46.516Z,91.60
2019-01-10T15:37:16.620Z,92.00
2019-01-10T15:39:46.693Z,92.00
2019-01-10T15:42:16.806Z,91.80
2019-01-10T15:44:46.898Z,91.90
2019-01-10T15:47:19.854Z,92.30
2019-01-10T15:49:48.803Z,92.10
2019-01-10T15:52:18.904Z,91.50
2019-01-10T15:54:48.977Z,91.60
2019-01-10T15:57:19.237Z,90.20
2019-01-10T15:59:49.376Z,90.90
2019-01-10T16:02:19.482Z,91.80
2019-01-10T16:04:50.685Z,92.00
2019-01-10T16:07:20.751Z,91.90
2019-01-10T16:09:50.853Z,92.70
2019-01-10T16:12:21.003Z,92.50
2019-01-10T16:14:51.103Z,92.80
2019-01-10T16:17:25.591Z,92.80
2019-01-10T16:19:53.161Z,92.80
2019-01-10T16:22:24.309Z,92.80
2019-01-10T16:24:54.413Z,93.00
2019-01-10T16:27:24.486Z,92.80
2019-01-10T16:29:54.588Z,93.10
2019-01-10T16:32:24.669Z,93.10
2019-01-10T16:34:54.769Z,93.40
2019-01-10T16:37:24.847Z,93.20
2019-01-10T16:39:54.950Z,93.40
2019-01-10T16:42:25.030Z,93.40
2019-01-10T16:44:55.129Z,93.10
2019-01-10T16:47:25.229Z,93.40
2019-01-10T16:49:55.335Z,93.40
2019-01-10T16:52:25.437Z,93.40
2019-01-10T16:54:55.547Z,93.90
2019-01-10T16:57:25.621Z,93.80
2019-01-10T16:59:55.739Z,93.80
2019-01-10T17:02:25.861Z,94.20
2019-01-10T17:04:55.964Z,94.10
2019-01-10T17:07:26.320Z,94.00
2019-01-10T17:09:56.417Z,94.00
2019-01-10T17:12:26.587Z,94.10
2019-01-10T17:14:56.674Z,94.20
2019-01-10T17:17:26.750Z,94.30
2019-01-10T17:19:56.861Z,94.40
2019-01-10T17:22:26.933Z,94.70
2019-01-10T17:24:57.041Z,94.40
2019-01-10T17:27:27.112Z,94.50
2019-01-10T17:29:57.213Z,94.40
2019-01-10T17:32:27.290Z,94.30
2019-01-10T17:34:58.366Z,94.10
2019-01-10T17:37:28.437Z,94.40
2019-01-10T17:39:58.540Z,94.40
2019-01-10T17:42:28.987Z,94.70
2019-01-10T17:44:59.091Z,95.10
2019-01-10T17:47:29.171Z,94.90
2019-01-10T17:49:59.280Z,95.10
2019-01-10T17:52:29.350Z,95.10
2019-01-10T17:54:59.478Z,95.30
2019-01-10T17:57:29.679Z,95.20
2019-01-10T17:59:59.789Z,95.20
2019-01-10T18:02:29.866Z,95.20
2019-01-10T18:04:59.978Z,95.40
2019-01-10T18:07:30.057Z,95.60
2019-01-10T18:10:00.210Z,96.10
2019-01-10T18:12:30.242Z,96.10
2019-01-10T18:15:00.341Z,96.50
2019-01-10T18:17:30.418Z,96.40
2019-01-10T18:20:01.597Z,96.60
2019-01-10T18:22:31.836Z,96.70
2019-01-10T18:25:01.946Z,96.60
2019-01-10T18:27:32.025Z,96.60
2019-01-10T18:30:02.136Z,96.30
2019-01-10T18:32:32.211Z,96.40
2019-01-10T18:35:02.386Z,96.40
2019-01-10T18:37:32.462Z,96.20
2019-01-10T18:40:02.572Z,96.30
2019-01-10T18:42:32.812Z,96.30
2019-01-10T18:45:02.914Z,96.30
2019-01-10T18:47:32.998Z,96.30
2019-01-10T18:50:03.101Z,96.00
2019-01-10T18:52:33.182Z,95.90
2019-01-10T18:55:03.458Z,96.00
2019-01-10T18:57:33.529Z,96.00
2019-01-10T19:00:06.676Z,95.90
2019-01-10T19:02:37.824Z,95.60
2019-01-10T19:05:08.014Z,95.80
2019-01-10T19:07:38.103Z,95.60
2019-01-10T19:10:13.134Z,95.80
2019-01-10T19:12:44.165Z,95.30
2019-01-10T19:15:14.270Z,95.50
2019-01-10T19:17:44.350Z,95.30
2019-01-10T19:20:38.728Z,95.00
2019-01-10T19:23:08.806Z,95.20
2019-01-10T19:25:38.919Z,95.40
2019-01-10T19:28:08.994Z,95.40
2019-01-10T19:30:39.100Z,95.40
2019-01-10T19:33:09.189Z,95.30
2019-01-10T19:35:39.288Z,95.30
2019-01-10T19:38:09.367Z,95.20
2019-01-10T19:40:39.475Z,95.20
2019-01-10T19:43:09.609Z,95.40
2019-01-10T19:45:39.709Z,95.30
2019-01-10T19:48:10.000Z,94.90
2019-01-10T19:50:40.071Z,95.20
2019-01-10T19:53:10.276Z,95.10
2019-01-10T19:55:45.003Z,95.50
2019-01-10T19:58:15.168Z,95.30
2019-01-10T20:00:45.278Z,95.30
2019-01-10T20:03:15.430Z,95.00
2019-01-10T20:05:45.638Z,94.80
2019-01-10T20:08:15.778Z,95.10
2019-01-10T20:10:46.291Z,95.00
2019-01-10T20:13:16.416Z,95.00
2019-01-10T20:15:47.381Z,95.00
2019-01-10T20:18:17.452Z,95.40
2019-01-10T20:21:07.194Z,94.70
2019-01-10T20:23:49.840Z,94.60
2019-01-10T20:26:19.952Z,95.00
2019-01-10T20:28:50.025Z,95.00
2019-01-10T20:31:20.129Z,95.10
2019-01-10T20:33:50.208Z,95.00
2019-01-10T20:36:20.314Z,95.10
2019-01-10T20:38:50.389Z,95.10
2019-01-10T20:41:20.493Z,95.20
2019-01-10T20:43:50.570Z,95.00
2019-01-10T20:46:20.682Z,95.00
2019-01-10T20:48:50.762Z,95.00
2019-01-10T20:51:20.860Z,95.20
2019-01-10T20:53:50.938Z,95.30
2019-01-10T20:56:21.412Z,95.40
2019-01-10T20:58:51.502Z,95.30
2019-01-10T21:01:21.776Z,95.30
2019-01-10T21:03:52.017Z,95.50
2019-01-10T21:06:22.122Z,95.60
2019-01-10T21:08:52.709Z,95.70
2019-01-10T21:11:22.947Z,95.60
2019-01-10T21:13:53.195Z,95.70
2019-01-10T21:16:23.300Z,95.70
2019-01-10T21:18:53.446Z,95.10
2019-01-10T21:21:24.613Z,95.30
2019-01-10T21:23:54.689Z,95.60
2019-01-10T21:26:24.795Z,95.70
2019-01-10T21:28:54.871Z,95.80
2019-01-10T21:31:24.989Z,95.60
2019-01-10T21:33:55.097Z,95.50
2019-01-10T21:36:25.198Z,95.30
2019-01-10T21:38:55.274Z,95.40
2019-01-10T21:41:25.819Z,95.30
2019-01-10T21:43:55.869Z,94.70
2019-01-10T21:46:26.973Z,95.10
2019-01-10T21:48:57.051Z,95.30
2019-01-10T21:51:27.150Z,94.80
2019-01-10T21:53:57.253Z,95.10
2019-01-10T21:56:27.339Z,94.90
2019-01-10T21:58:57.497Z,94.80
2019-01-10T22:01:27.665Z,94.90
2019-01-10T22:03:57.762Z,95.40
2019-01-10T22:06:27.841Z,95.30
2019-01-10T22:08:57.938Z,95.60
2019-01-10T22:11:28.014Z,95.40
2019-01-10T22:13:58.107Z,95.40
2019-01-10T22:16:28.212Z,95.60
2019-01-10T22:18:58.882Z,95.60
2019-01-10T22:21:29.863Z,95.30
2019-01-10T22:23:59.954Z,95.20
2019-01-10T22:26:30.027Z,95.00
2019-01-10T22:29:00.125Z,95.10
2019-01-10T22:31:30.205Z,95.30
2019-01-10T22:34:00.303Z,94.60
2019-01-10T22:36:30.376Z,95.00
2019-01-10T22:39:00.474Z,95.50
2019-01-10T22:41:30.551Z,94.90
2019-01-10T22:44:00.817Z,95.10
2019-01-10T22:46:30.895Z,95.70
2019-01-10T22:49:00.992Z,95.20
2019-01-10T22:51:31.066Z,95.30
2019-01-10T22:54:01.159Z,95.60
2019-01-10T22:56:31.244Z,95.70
2019-01-10T22:59:01.413Z,95.60
2019-01-10T23:01:35.033Z,95.00
2019-01-10T23:04:05.143Z,94.90
2019-01-10T23:06:35.217Z,95.00
2019-01-10T23:09:08.031Z,95.30
2019-01-10T23:11:38.289Z,94.90
2019-01-10T23:14:08.388Z,94.70
2019-01-10T23:16:38.463Z,95.00
2019-01-10T23:19:08.568Z,95.10
2019-01-10T23:21:38.642Z,95.10
2019-01-10T23:24:08.809Z,94.90
2019-01-10T23:26:38.880Z,94.90
2019-01-10T23:29:09.047Z,95.00
2019-01-10T23:31:39.123Z,95.30
2019-01-10T23:34:09.289Z,95.30
2019-01-10T23:36:39.364Z,95.40
2019-01-10T23:39:15.888Z,95.40
2019-01-10T23:41:45.965Z,94.60
2019-01-10T23:44:16.062Z,95.00
2019-01-10T23:46:46.138Z,95.10
2019-01-10T23:49:16.238Z,95.00
2019-01-10T23:51:46.309Z,95.10
2019-01-10T23:54:16.405Z,95.10
2019-01-10T23:56:46.490Z,95.40
2019-01-10T23:59:16.587Z,95.30
